Date,TemperatureHighF,TemperatureAvgF,TemperatureLowF,DewpointHighF,DewpointAvgF,DewpointLowF,HumidityHigh,HumidityAvg,HumidityLow,PressureMaxIn,PressureMinIn,WindSpeedMaxMPH,WindSpeedAvgMPH,GustSpeedMaxMPH,PrecipitationSumIn
2013-3-2,95,57,41,57,23,-10,75,36,10,29.94,29.70,18,7,18,37.93
2013-3-3,95,54,32,95,46,25,100,75,75,30.25,29.49,30,10,30,0.01
2013-3-4,75,61,44,67,53,37,75,75,75,30.39,29.83,46,16,46,0.24
2013-3-5,56,45,34,48,37,26,75,75,75,30.71,30.39,40,15,42,1.13
2013-3-6,57,42,27,49,35,20,75,75,75,30.71,30.41,22,9,22,0.00
2013-3-7,95,56,37,95,46,30,100,70,31,30.41,29.86,27,13,27,0.77
2013-3-8,95,69,61,57,46,40,80,49,27,29.99,29.87,30,9,30,0.06
2013-3-9,95,64,50,59,32,20,83,34,17,30.19,29.86,32,12,32,3.72
2013-3-10,95,44,33,57,24,12,65,47,24,30.27,29.79,37,21,37,1.57
2013-3-11,94,45,29,57,20,17,60,41,16,29.96,29.78,15,8,15,1.57
2013-3-12,95,54,41,57,34,23,67,47,27,30.00,29.62,40,8,40,1.57
2013-3-13,73,52,31,38,30,25,88,50,17,30.09,29.91,20,6,20,0.00
2013-3-14,83,59,38,40,35,31,82,48,16,29.93,29.74,17,7,17,0.00
2013-3-15,117,66,43,39,36,27,72,38,11,29.77,29.42,27,8,27,0.01
2013-3-16,121,62,50,48,40,34,63,45,29,29.81,29.37,34,13,34,0.00
2013-3-17,63,49,39,44,33,29,69,56,37,29.90,29.64,34,13,34,0.01
2013-3-18,63,50,41,39,31,18,88,54,18,30.00,29.62,27,12,27,0.00
2013-3-19,62,50,35,39,33,25,80,53,39,30.20,29.97,24,8,24,0.00
2013-3-20,71,52,35,37,26,13,74,42,12,30.34,29.95,22,8,22,0.00
2013-3-21,86,62,48,48,34,21,68,36,16,29.95,29.42,34,16,34,0.00
2013-3-22,49,44,38,38,34,32,86,70,54,29.92,29.57,37,18,37,0.00
2013-3-23,95,44,0,48,38,28,89,79,70,29.96,29.67,35,12,35,1.55
2013-3-24,47,37,30,28,17,4,74,47,17,30.19,29.94,35,18,35,0.00
2013-3-25,50,37,24,19,12,5,67,38,17,30.37,30.19,29,10,29,0.00
2013-3-26,64,44,20,18,13,6,70,34,10,30.40,30.11,29,9,29,0.00
2013-3-27,80,58,40,38,27,18,50,33,14,30.13,29.91,30,15,30,0.00
2013-3-28,82,65,47,50,43,37,76,48,26,30.05,29.92,24,12,24,0.00
2013-3-29,81,66,54,57,53,46,92,66,37,30.03,29.90,27,11,27,0.00
2013-3-30,86,67,47,59,54,46,99,66,31,29.95,29.81,23,6,23,0.00
2013-3-31,95,43,0,58,53,47,91,54,27,30.00,29.81,36,9,36,1.35